SWA1153 KHOU-KMAF
Flight info
| Callsign | SWA1153 |
|---|---|
| Flight time | N/A |
| Altitude | 36000 |
| Route | RETYR8 JCT |
| Aircraft | B737/M-SADE2E3GIJ4RWZ/LB1D1 |
Departure
| Time | 2026-04-29 14:12 |
|---|---|
| Airport | William P. Hobby Airport (KHOU) |
Arrival
| Time | N/A |
|---|---|
| Airport | Midland International Air and Space Port (KMAF) |
| Time | Latitude | Longitude | Altitude | Speed | Heading |
|---|---|---|---|---|---|
| 2026-04-29 13:37 | 29.65294 | -95.27843 | 51 ft | 0 kts | 158° |
| 2026-04-29 14:00 | 29.65317 | -95.27851 | 45 ft | 4 kts | 176° |
| 2026-04-29 14:01 | 29.65341 | -95.27847 | 49 ft | 4 kts | 222° |
| 2026-04-29 14:01 | 29.65351 | -95.27831 | 46 ft | 1 kts | 249° |
| 2026-04-29 14:01 | 29.65352 | -95.27829 | 46 ft | 0 kts | 249° |
| 2026-04-29 14:04 | 29.65349 | -95.27837 | 49 ft | 4 kts | 249° |
| 2026-04-29 14:04 | 29.65327 | -95.27899 | 51 ft | 12 kts | 248° |
| 2026-04-29 14:04 | 29.65277 | -95.27981 | 48 ft | 13 kts | 225° |
| 2026-04-29 14:04 | 29.65202 | -95.28007 | 51 ft | 12 kts | 147° |
| 2026-04-29 14:05 | 29.65142 | -95.27940 | 51 ft | 12 kts | 134° |
| 2026-04-29 14:05 | 29.65100 | -95.27861 | 51 ft | 12 kts | 93° |
| 2026-04-29 14:05 | 29.65099 | -95.27768 | 51 ft | 11 kts | 90° |
| 2026-04-29 14:05 | 29.65101 | -95.27677 | 51 ft | 11 kts | 88° |
| 2026-04-29 14:06 | 29.65103 | -95.27589 | 51 ft | 11 kts | 88° |
| 2026-04-29 14:06 | 29.65104 | -95.27537 | 51 ft | 0 kts | 89° |
| 2026-04-29 14:09 | 29.65105 | -95.27524 | 51 ft | 7 kts | 89° |
| 2026-04-29 14:09 | 29.65107 | -95.27430 | 51 ft | 16 kts | 86° |
| 2026-04-29 14:09 | 29.65168 | -95.27323 | 51 ft | 16 kts | 45° |
| 2026-04-29 14:09 | 29.65247 | -95.27233 | 49 ft | 16 kts | 43° |
| 2026-04-29 14:10 | 29.65326 | -95.27148 | 51 ft | 15 kts | 44° |
| 2026-04-29 14:10 | 29.65400 | -95.27065 | 51 ft | 15 kts | 44° |
| 2026-04-29 14:10 | 29.65465 | -95.26980 | 51 ft | 14 kts | 77° |
| 2026-04-29 14:10 | 29.65418 | -95.26891 | 51 ft | 10 kts | 133° |
| 2026-04-29 14:11 | 29.65398 | -95.26890 | 51 ft | 3 kts | 213° |
| 2026-04-29 14:11 | 29.65308 | -95.26989 | 48 ft | 50 kts | 224° |
| 2026-04-29 14:11 | 29.64874 | -95.27467 | 48 ft | 120 kts | 224° |
| 2026-04-29 14:11 | 29.64151 | -95.28252 | 189 ft | 158 kts | 221° |
| 2026-04-29 14:12 | 29.63372 | -95.29104 | 959 ft | 149 kts | 222° |
| 2026-04-29 14:12 | 29.62660 | -95.29929 | 1780 ft | 146 kts | 223° |
| 2026-04-29 14:12 | 29.61883 | -95.30850 | 2160 ft | 179 kts | 222° |
| 2026-04-29 14:12 | 29.60973 | -95.31962 | 2743 ft | 198 kts | 232° |
| 2026-04-29 14:13 | 29.60560 | -95.33567 | 3046 ft | 234 kts | 272° |
| 2026-04-29 14:13 | 29.61047 | -95.35447 | 3657 ft | 253 kts | 286° |
| 2026-04-29 14:13 | 29.61655 | -95.37382 | 4375 ft | 259 kts | 283° |
| 2026-04-29 14:13 | 29.62122 | -95.39383 | 5204 ft | 259 kts | 279° |
| 2026-04-29 14:14 | 29.62590 | -95.41403 | 6008 ft | 267 kts | 283° |
| 2026-04-29 14:14 | 29.63193 | -95.43434 | 7024 ft | 270 kts | 286° |
| 2026-04-29 14:14 | 29.63796 | -95.45466 | 7887 ft | 275 kts | 286° |
| 2026-04-29 14:14 | 29.64392 | -95.47567 | 8769 ft | 278 kts | 286° |
| 2026-04-29 14:15 | 29.64969 | -95.49696 | 9665 ft | 280 kts | 287° |
| 2026-04-29 14:15 | 29.65535 | -95.51855 | 10406 ft | 288 kts | 286° |
| 2026-04-29 14:15 | 29.66124 | -95.54159 | 10643 ft | 315 kts | 286° |
| 2026-04-29 14:15 | 29.66756 | -95.56676 | 10829 ft | 340 kts | 286° |
| 2026-04-29 14:16 | 29.67425 | -95.59374 | 11042 ft | 361 kts | 285° |
| 2026-04-29 14:16 | 29.68117 | -95.62183 | 11598 ft | 369 kts | 285° |
| 2026-04-29 14:16 | 29.68815 | -95.65030 | 12387 ft | 370 kts | 285° |
| 2026-04-29 14:16 | 29.69504 | -95.67849 | 13178 ft | 372 kts | 285° |
| 2026-04-29 14:17 | 29.70206 | -95.70723 | 13934 ft | 374 kts | 285° |
| 2026-04-29 14:17 | 29.70909 | -95.73602 | 14747 ft | 373 kts | 285° |
| 2026-04-29 14:17 | 29.71607 | -95.76467 | 15530 ft | 372 kts | 285° |
| 2026-04-29 14:17 | 29.72415 | -95.79308 | 16248 ft | 376 kts | 291° |
| 2026-04-29 14:18 | 29.73612 | -95.81998 | 16948 ft | 380 kts | 299° |
| 2026-04-29 14:18 | 29.75005 | -95.84588 | 17664 ft | 382 kts | 299° |
| 2026-04-29 14:18 | 29.76402 | -95.87201 | 18335 ft | 384 kts | 299° |
| 2026-04-29 14:18 | 29.77770 | -95.89799 | 18892 ft | 386 kts | 298° |
| 2026-04-29 14:19 | 29.79151 | -95.92466 | 19435 ft | 389 kts | 298° |
| 2026-04-29 14:19 | 29.80536 | -95.95160 | 19969 ft | 392 kts | 298° |
| 2026-04-29 14:19 | 29.81928 | -95.97872 | 20498 ft | 395 kts | 298° |
| 2026-04-29 14:19 | 29.83330 | -96.00603 | 21012 ft | 397 kts | 298° |
| 2026-04-29 14:20 | 29.84741 | -96.03348 | 21501 ft | 400 kts | 298° |
| 2026-04-29 14:20 | 29.86163 | -96.06117 | 21970 ft | 403 kts | 298° |
| 2026-04-29 14:20 | 29.87594 | -96.08902 | 22413 ft | 405 kts | 298° |
| 2026-04-29 14:20 | 29.89031 | -96.11701 | 22863 ft | 407 kts | 298° |
| 2026-04-29 14:21 | 29.90477 | -96.14518 | 23281 ft | 410 kts | 298° |
| 2026-04-29 14:21 | 29.91934 | -96.17361 | 23628 ft | 413 kts | 297° |
| 2026-04-29 14:21 | 29.93190 | -96.20280 | 23970 ft | 412 kts | 290° |
| 2026-04-29 14:21 | 29.94115 | -96.23396 | 24357 ft | 411 kts | 283° |
| 2026-04-29 14:22 | 29.94673 | -96.26627 | 24726 ft | 411 kts | 279° |
| 2026-04-29 14:22 | 29.95164 | -96.29876 | 25088 ft | 412 kts | 279° |
| 2026-04-29 14:22 | 29.95655 | -96.33140 | 25438 ft | 413 kts | 279° |
| 2026-04-29 14:22 | 29.95708 | -96.33494 | 25472 ft | 414 kts | 279° |
| 2026-04-29 14:24 | 29.95918 | -96.34874 | 25619 ft | 414 kts | 280° |
| 2026-04-29 14:24 | 29.96420 | -96.38143 | 26049 ft | 413 kts | 280° |
| 2026-04-29 14:25 | 29.96927 | -96.41401 | 26480 ft | 413 kts | 280° |
| 2026-04-29 14:25 | 29.97438 | -96.44668 | 26788 ft | 415 kts | 280° |
| 2026-04-29 14:25 | 29.97951 | -96.47947 | 27060 ft | 417 kts | 280° |
| 2026-04-29 14:25 | 29.98468 | -96.51249 | 27327 ft | 419 kts | 280° |
| 2026-04-29 14:26 | 29.98984 | -96.54559 | 27640 ft | 420 kts | 280° |
| 2026-04-29 14:26 | 29.99494 | -96.57837 | 27920 ft | 421 kts | 280° |
| 2026-04-29 14:26 | 30.00008 | -96.61166 | 28239 ft | 421 kts | 280° |
| 2026-04-29 14:26 | 30.00518 | -96.64483 | 28662 ft | 419 kts | 280° |
| 2026-04-29 14:27 | 30.01022 | -96.67772 | 29180 ft | 415 kts | 280° |
| 2026-04-29 14:27 | 30.01522 | -96.71039 | 29708 ft | 412 kts | 280° |
| 2026-04-29 14:27 | 30.02019 | -96.74293 | 30172 ft | 410 kts | 280° |
| 2026-04-29 14:28 | 30.03003 | -96.80742 | 31042 ft | 406 kts | 281° |
| 2026-04-29 14:28 | 30.03490 | -96.83943 | 31502 ft | 404 kts | 281° |
| 2026-04-29 14:28 | 30.03967 | -96.87085 | 31919 ft | 403 kts | 280° |
| 2026-04-29 14:28 | 30.04233 | -96.88834 | 32150 ft | 402 kts | 280° |
| 2026-04-29 14:29 | 30.04518 | -96.90714 | 32399 ft | 401 kts | 280° |
| 2026-04-29 14:29 | 30.04997 | -96.93879 | 32876 ft | 399 kts | 281° |
| 2026-04-29 14:29 | 30.05471 | -96.97021 | 33347 ft | 396 kts | 281° |
| 2026-04-29 14:30 | 30.05943 | -97.00149 | 33781 ft | 395 kts | 281° |
| 2026-04-29 14:30 | 30.06413 | -97.03264 | 34161 ft | 393 kts | 281° |
| 2026-04-29 14:30 | 30.06880 | -97.06370 | 34513 ft | 392 kts | 281° |
| 2026-04-29 14:30 | 30.07337 | -97.09417 | 34845 ft | 390 kts | 281° |
| 2026-04-29 14:31 | 30.07799 | -97.12497 | 35159 ft | 389 kts | 281° |
| 2026-04-29 14:31 | 30.08259 | -97.15569 | 35452 ft | 388 kts | 281° |
| 2026-04-29 14:31 | 30.08716 | -97.18631 | 35758 ft | 387 kts | 281° |
| 2026-04-29 14:31 | 30.09172 | -97.21685 | 35940 ft | 388 kts | 281° |
| 2026-04-29 14:32 | 30.09632 | -97.24776 | 35927 ft | 391 kts | 281° |
| 2026-04-29 14:32 | 30.10548 | -97.30945 | 35912 ft | 388 kts | 281° |
| 2026-04-29 14:33 | 30.11446 | -97.37008 | 35889 ft | 384 kts | 281° |
| 2026-04-29 14:33 | 30.12341 | -97.43074 | 35889 ft | 382 kts | 281° |
| 2026-04-29 14:34 | 30.13338 | -97.49097 | 35879 ft | 381 kts | 287° |
| 2026-04-29 14:34 | 30.15373 | -97.54737 | 35966 ft | 381 kts | 294° |
| 2026-04-29 14:35 | 30.17766 | -97.60211 | 35962 ft | 382 kts | 295° |
| 2026-04-29 14:35 | 30.20148 | -97.65680 | 35981 ft | 385 kts | 294° |
| 2026-04-29 14:36 | 30.22534 | -97.71239 | 35976 ft | 387 kts | 294° |
| 2026-04-29 14:36 | 30.24861 | -97.76869 | 35944 ft | 389 kts | 293° |
| 2026-04-29 14:37 | 30.27154 | -97.82548 | 35938 ft | 390 kts | 293° |
| 2026-04-29 14:37 | 30.29454 | -97.88238 | 35977 ft | 391 kts | 293° |
| 2026-04-29 14:38 | 30.31743 | -97.93891 | 35989 ft | 391 kts | 293° |
| 2026-04-29 14:38 | 30.34048 | -97.99587 | 36006 ft | 390 kts | 292° |
| 2026-04-29 14:39 | 30.36350 | -98.05283 | 36010 ft | 391 kts | 292° |
| 2026-04-29 14:39 | 30.38648 | -98.10978 | 36007 ft | 390 kts | 292° |
| 2026-04-29 14:40 | 30.40928 | -98.16637 | 35993 ft | 390 kts | 292° |
| 2026-04-29 14:40 | 30.43219 | -98.22333 | 35989 ft | 390 kts | 292° |
| 2026-04-29 14:41 | 30.45509 | -98.28033 | 36007 ft | 390 kts | 292° |
| 2026-04-29 14:41 | 30.47796 | -98.33734 | 36009 ft | 390 kts | 292° |
| 2026-04-29 14:42 | 30.50074 | -98.39420 | 36007 ft | 388 kts | 292° |
| 2026-04-29 14:42 | 30.52323 | -98.45046 | 35933 ft | 386 kts | 292° |
| 2026-04-29 14:43 | 30.54578 | -98.50695 | 35952 ft | 385 kts | 292° |
| 2026-04-29 14:43 | 30.56825 | -98.56332 | 35970 ft | 385 kts | 292° |
| 2026-04-29 14:44 | 30.59069 | -98.61970 | 35978 ft | 385 kts | 292° |
| 2026-04-29 14:44 | 30.61294 | -98.67569 | 35995 ft | 385 kts | 292° |
| 2026-04-29 14:45 | 30.63532 | -98.73211 | 36000 ft | 384 kts | 292° |
| 2026-04-29 14:45 | 30.65759 | -98.78832 | 35986 ft | 382 kts | 292° |
| 2026-04-29 14:46 | 30.67983 | -98.84457 | 35990 ft | 384 kts | 292° |
| 2026-04-29 14:46 | 30.70192 | -98.90052 | 35962 ft | 377 kts | 292° |
| 2026-04-29 14:47 | 30.72327 | -98.95458 | 35964 ft | 364 kts | 292° |
| 2026-04-29 14:47 | 30.74429 | -99.00801 | 35965 ft | 364 kts | 292° |
| 2026-04-29 14:48 | 30.76532 | -99.06154 | 35945 ft | 364 kts | 292° |
| 2026-04-29 14:48 | 30.78636 | -99.11517 | 35913 ft | 364 kts | 292° |
| 2026-04-29 14:49 | 30.80726 | -99.16849 | 35951 ft | 366 kts | 292° |
| 2026-04-29 14:49 | 30.82839 | -99.22248 | 35945 ft | 367 kts | 292° |
| 2026-04-29 14:50 | 30.84959 | -99.27672 | 35953 ft | 369 kts | 292° |
| 2026-04-29 14:50 | 30.87083 | -99.33118 | 35957 ft | 370 kts | 292° |
| 2026-04-29 14:51 | 30.89212 | -99.38580 | 35962 ft | 371 kts | 292° |
| 2026-04-29 14:51 | 30.91331 | -99.44030 | 35958 ft | 373 kts | 291° |
| 2026-04-29 14:52 | 30.93475 | -99.49552 | 35967 ft | 375 kts | 292° |
| 2026-04-29 14:52 | 30.95626 | -99.55095 | 35964 ft | 375 kts | 292° |
| 2026-04-29 14:53 | 30.97770 | -99.60632 | 35977 ft | 374 kts | 292° |
| 2026-04-29 14:53 | 30.99893 | -99.66121 | 35966 ft | 373 kts | 292° |
| 2026-04-29 14:54 | 31.02018 | -99.71623 | 35968 ft | 371 kts | 292° |
| 2026-04-29 14:54 | 31.04131 | -99.77105 | 35992 ft | 370 kts | 291° |
| 2026-04-29 14:55 | 31.06234 | -99.82570 | 35988 ft | 369 kts | 292° |
| 2026-04-29 14:55 | 31.08317 | -99.87991 | 35992 ft | 369 kts | 291° |
| 2026-04-29 14:56 | 31.10415 | -99.93460 | 35975 ft | 370 kts | 291° |
| 2026-04-29 14:56 | 31.12519 | -99.98952 | 35977 ft | 371 kts | 291° |
| 2026-04-29 14:57 | 31.12873 | -99.99879 | 35987 ft | 371 kts | 291° |